Terminal Aerodrome Forecast
Issued by NWS Sioux Falls, SD

Home | Current Version | Previous Version | Graphics & Text | Print | Product List | Glossary On
Versions: 1 2 3 4 5 6 7 8 9 10 11 12 13
648
FTUS43 KFSD 300752 AAA
TAFHON
TAF AMD
KHON 300752Z 3008/0106 05008KT P6SM SCT040 BKN150
     FM301500 04012G20KT P6SM SCT050 OVC100
     FM010200 02010KT P6SM OVC150=

USA.gov is the U.S. government's official web portal to all federal, state and local government web resources and services.